sensor_id;sensor_type;location;lat;lon;timestamp;P1;durP1;ratioP1;P2;durP2;ratioP2
11533;SDS011;5823;50.588;8.462;2023-04-07T00:01:23;0.60;;;0.30;;
11533;SDS011;5823;50.588;8.462;2023-04-07T00:03:49;0.30;;;0.30;;
11533;SDS011;5823;50.588;8.462;2023-04-07T00:06:15;0.30;;;0.30;;
11533;SDS011;5823;50.588;8.462;2023-04-07T00:08:42;0.30;;;0.30;;
11533;SDS011;5823;50.588;8.462;2023-04-07T00:11:09;0.22;;;0.22;;
11533;SDS011;5823;50.588;8.462;2023-04-07T00:13:35;0.20;;;0.20;;
11533;SDS011;5823;50.588;8.462;2023-04-07T00:16:02;0.30;;;0.30;;
11533;SDS011;5823;50.588;8.462;2023-04-07T00:18:28;0.20;;;0.20;;
11533;SDS011;5823;50.588;8.462;2023-04-07T00:20:54;0.30;;;0.30;;
11533;SDS011;5823;50.588;8.462;2023-04-07T00:23:20;0.45;;;0.40;;
11533;SDS011;5823;50.588;8.462;2023-04-07T00:25:47;0.30;;;0.30;;
11533;SDS011;5823;50.588;8.462;2023-04-07T00:28:14;0.22;;;0.22;;
11533;SDS011;5823;50.588;8.462;2023-04-07T00:30:41;0.32;;;0.32;;
11533;SDS011;5823;50.588;8.462;2023-04-07T00:33:07;0.30;;;0.30;;
11533;SDS011;5823;50.588;8.462;2023-04-07T00:35:33;0.50;;;0.50;;
11533;SDS011;5823;50.588;8.462;2023-04-07T00:37:59;0.35;;;0.35;;
11533;SDS011;5823;50.588;8.462;2023-04-07T00:40:26;0.43;;;0.43;;
11533;SDS011;5823;50.588;8.462;2023-04-07T00:42:53;0.10;;;0.10;;
11533;SDS011;5823;50.588;8.462;2023-04-07T00:45:20;0.38;;;0.38;;
11533;SDS011;5823;50.588;8.462;2023-04-07T00:47:46;0.40;;;0.40;;
11533;SDS011;5823;50.588;8.462;2023-04-07T00:50:13;0.28;;;0.28;;
11533;SDS011;5823;50.588;8.462;2023-04-07T00:52:39;0.52;;;0.52;;
11533;SDS011;5823;50.588;8.462;2023-04-07T00:55:06;0.70;;;0.70;;
11533;SDS011;5823;50.588;8.462;2023-04-07T00:57:32;0.65;;;0.65;;
11533;SDS011;5823;50.588;8.462;2023-04-07T00:59:59;0.45;;;0.45;;
11533;SDS011;5823;50.588;8.462;2023-04-07T01:02:28;0.50;;;0.40;;
11533;SDS011;5823;50.588;8.462;2023-04-07T01:04:58;0.35;;;0.30;;
11533;SDS011;5823;50.588;8.462;2023-04-07T01:07:26;0.45;;;0.45;;
11533;SDS011;5823;50.588;8.462;2023-04-07T01:09:54;0.60;;;0.60;;
11533;SDS011;5823;50.588;8.462;2023-04-07T01:12:25;0.43;;;0.43;;
11533;SDS011;5823;50.588;8.462;2023-04-07T01:14:54;0.47;;;0.47;;
11533;SDS011;5823;50.588;8.462;2023-04-07T01:17:24;0.40;;;0.40;;
11533;SDS011;5823;50.588;8.462;2023-04-07T01:19:55;0.65;;;0.65;;
11533;SDS011;5823;50.588;8.462;2023-04-07T01:22:22;0.50;;;0.50;;
11533;SDS011;5823;50.588;8.462;2023-04-07T01:27:42;0.55;;;0.55;;
11533;SDS011;5823;50.588;8.462;2023-04-07T01:30:13;0.88;;;0.70;;
11533;SDS011;5823;50.588;8.462;2023-04-07T01:32:40;0.38;;;0.38;;
11533;SDS011;5823;50.588;8.462;2023-04-07T01:35:09;0.40;;;0.40;;
11533;SDS011;5823;50.588;8.462;2023-04-07T01:37:35;0.55;;;0.55;;
11533;SDS011;5823;50.588;8.462;2023-04-07T01:40:02;0.70;;;0.70;;
11533;SDS011;5823;50.588;8.462;2023-04-07T01:42:29;0.47;;;0.47;;
11533;SDS011;5823;50.588;8.462;2023-04-07T01:44:55;0.70;;;0.70;;
11533;SDS011;5823;50.588;8.462;2023-04-07T01:47:23;0.57;;;0.57;;
11533;SDS011;5823;50.588;8.462;2023-04-07T01:49:51;0.60;;;0.60;;
11533;SDS011;5823;50.588;8.462;2023-04-07T01:52:19;0.40;;;0.40;;
11533;SDS011;5823;50.588;8.462;2023-04-07T01:54:46;0.60;;;0.60;;
11533;SDS011;5823;50.588;8.462;2023-04-07T01:57:12;0.55;;;0.55;;
11533;SDS011;5823;50.588;8.462;2023-04-07T01:59:38;0.60;;;0.60;;
11533;SDS011;5823;50.588;8.462;2023-04-07T02:02:04;0.70;;;0.70;;
11533;SDS011;5823;50.588;8.462;2023-04-07T02:04:33;1.00;;;1.00;;
11533;SDS011;5823;50.588;8.462;2023-04-07T02:07:02;1.13;;;1.02;;
11533;SDS011;5823;50.588;8.462;2023-04-07T02:09:30;0.60;;;0.60;;
11533;SDS011;5823;50.588;8.462;2023-04-07T02:11:57;1.42;;;1.33;;
11533;SDS011;5823;50.588;8.462;2023-04-07T02:14:24;1.10;;;1.00;;
11533;SDS011;5823;50.588;8.462;2023-04-07T02:16:51;0.82;;;0.82;;
11533;SDS011;5823;50.588;8.462;2023-04-07T02:19:18;1.00;;;0.90;;
11533;SDS011;5823;50.588;8.462;2023-04-07T02:21:46;0.88;;;0.88;;
11533;SDS011;5823;50.588;8.462;2023-04-07T02:24:13;1.05;;;1.00;;
11533;SDS011;5823;50.588;8.462;2023-04-07T02:26:41;1.05;;;0.95;;
11533;SDS011;5823;50.588;8.462;2023-04-07T02:29:07;0.93;;;0.82;;
11533;SDS011;5823;50.588;8.462;2023-04-07T02:31:33;1.30;;;1.20;;
11533;SDS011;5823;50.588;8.462;2023-04-07T02:34:00;1.02;;;0.77;;
11533;SDS011;5823;50.588;8.462;2023-04-07T02:36:26;0.70;;;0.70;;
11533;SDS011;5823;50.588;8.462;2023-04-07T02:38:53;1.00;;;0.90;;
11533;SDS011;5823;50.588;8.462;2023-04-07T02:41:20;0.75;;;0.75;;
11533;SDS011;5823;50.588;8.462;2023-04-07T02:43:46;1.20;;;1.10;;
11533;SDS011;5823;50.588;8.462;2023-04-07T02:46:13;0.70;;;0.70;;
11533;SDS011;5823;50.588;8.462;2023-04-07T02:48:39;1.02;;;0.95;;
11533;SDS011;5823;50.588;8.462;2023-04-07T02:51:05;1.40;;;1.25;;
11533;SDS011;5823;50.588;8.462;2023-04-07T02:53:31;1.50;;;1.40;;
11533;SDS011;5823;50.588;8.462;2023-04-07T02:55:59;0.90;;;0.90;;
11533;SDS011;5823;50.588;8.462;2023-04-07T02:58:25;0.88;;;0.88;;
11533;SDS011;5823;50.588;8.462;2023-04-07T03:00:51;1.25;;;1.15;;
11533;SDS011;5823;50.588;8.462;2023-04-07T03:03:18;0.77;;;0.77;;
11533;SDS011;5823;50.588;8.462;2023-04-07T03:05:44;0.80;;;0.80;;
11533;SDS011;5823;50.588;8.462;2023-04-07T03:08:10;0.95;;;0.90;;
11533;SDS011;5823;50.588;8.462;2023-04-07T03:10:36;0.77;;;0.77;;
11533;SDS011;5823;50.588;8.462;2023-04-07T03:13:04;0.60;;;0.60;;
11533;SDS011;5823;50.588;8.462;2023-04-07T03:15:30;0.77;;;0.77;;
11533;SDS011;5823;50.588;8.462;2023-04-07T03:17:56;0.80;;;0.80;;
11533;SDS011;5823;50.588;8.462;2023-04-07T03:20:22;0.80;;;0.80;;
11533;SDS011;5823;50.588;8.462;2023-04-07T03:22:49;0.70;;;0.70;;
11533;SDS011;5823;50.588;8.462;2023-04-07T03:25:15;0.82;;;0.82;;
11533;SDS011;5823;50.588;8.462;2023-04-07T03:27:41;0.93;;;0.93;;
11533;SDS011;5823;50.588;8.462;2023-04-07T03:30:09;0.98;;;0.98;;
11533;SDS011;5823;50.588;8.462;2023-04-07T03:32:36;0.60;;;0.60;;
11533;SDS011;5823;50.588;8.462;2023-04-07T03:35:02;0.80;;;0.80;;
11533;SDS011;5823;50.588;8.462;2023-04-07T03:37:28;0.60;;;0.60;;
11533;SDS011;5823;50.588;8.462;2023-04-07T03:39:54;0.70;;;0.70;;
11533;SDS011;5823;50.588;8.462;2023-04-07T03:42:21;0.50;;;0.50;;
11533;SDS011;5823;50.588;8.462;2023-04-07T03:44:47;0.60;;;0.60;;
11533;SDS011;5823;50.588;8.462;2023-04-07T03:47:14;0.80;;;0.80;;
11533;SDS011;5823;50.588;8.462;2023-04-07T03:49:41;0.77;;;0.60;;
11533;SDS011;5823;50.588;8.462;2023-04-07T03:52:07;0.57;;;0.57;;
11533;SDS011;5823;50.588;8.462;2023-04-07T03:54:33;0.73;;;0.70;;
11533;SDS011;5823;50.588;8.462;2023-04-07T03:57:00;0.80;;;0.80;;
11533;SDS011;5823;50.588;8.462;2023-04-07T03:59:27;0.73;;;0.73;;
11533;SDS011;5823;50.588;8.462;2023-04-07T04:01:53;0.60;;;0.60;;
11533;SDS011;5823;50.588;8.462;2023-04-07T04:04:20;0.60;;;0.60;;
11533;SDS011;5823;50.588;8.462;2023-04-07T04:06:48;0.77;;;0.77;;
11533;SDS011;5823;50.588;8.462;2023-04-07T04:09:14;0.52;;;0.52;;
11533;SDS011;5823;50.588;8.462;2023-04-07T04:11:41;0.50;;;0.50;;
11533;SDS011;5823;50.588;8.462;2023-04-07T04:14:07;1.20;;;1.10;;
11533;SDS011;5823;50.588;8.462;2023-04-07T04:16:33;0.98;;;0.98;;
11533;SDS011;5823;50.588;8.462;2023-04-07T04:19:00;1.17;;;1.05;;
11533;SDS011;5823;50.588;8.462;2023-04-07T04:21:27;0.85;;;0.85;;
11533;SDS011;5823;50.588;8.462;2023-04-07T04:23:54;0.90;;;0.90;;
11533;SDS011;5823;50.588;8.462;2023-04-07T04:26:20;1.15;;;1.05;;
11533;SDS011;5823;50.588;8.462;2023-04-07T04:28:49;2.13;;;1.20;;
11533;SDS011;5823;50.588;8.462;2023-04-07T04:31:16;1.08;;;0.98;;
11533;SDS011;5823;50.588;8.462;2023-04-07T04:33:42;0.80;;;0.80;;
11533;SDS011;5823;50.588;8.462;2023-04-07T04:36:08;1.30;;;1.20;;
11533;SDS011;5823;50.588;8.462;2023-04-07T04:38:36;1.27;;;1.17;;
11533;SDS011;5823;50.588;8.462;2023-04-07T04:41:02;1.30;;;1.20;;
11533;SDS011;5823;50.588;8.462;2023-04-07T04:43:28;0.98;;;0.98;;
11533;SDS011;5823;50.588;8.462;2023-04-07T04:45:55;1.00;;;1.00;;
11533;SDS011;5823;50.588;8.462;2023-04-07T04:48:23;0.85;;;0.85;;
11533;SDS011;5823;50.588;8.462;2023-04-07T04:50:49;1.10;;;1.00;;
11533;SDS011;5823;50.588;8.462;2023-04-07T04:53:15;0.80;;;0.80;;
11533;SDS011;5823;50.588;8.462;2023-04-07T04:55:43;1.00;;;1.00;;
11533;SDS011;5823;50.588;8.462;2023-04-07T04:58:12;1.30;;;1.20;;
11533;SDS011;5823;50.588;8.462;2023-04-07T05:00:38;0.82;;;0.82;;
11533;SDS011;5823;50.588;8.462;2023-04-07T05:03:04;0.90;;;0.90;;
11533;SDS011;5823;50.588;8.462;2023-04-07T05:05:30;1.27;;;1.17;;
11533;SDS011;5823;50.588;8.462;2023-04-07T05:07:57;1.38;;;1.27;;
11533;SDS011;5823;50.588;8.462;2023-04-07T05:10:23;0.95;;;0.93;;
11533;SDS011;5823;50.588;8.462;2023-04-07T05:12:50;1.73;;;1.30;;
11533;SDS011;5823;50.588;8.462;2023-04-07T05:15:17;0.90;;;0.90;;
11533;SDS011;5823;50.588;8.462;2023-04-07T05:17:43;0.95;;;0.90;;
11533;SDS011;5823;50.588;8.462;2023-04-07T05:20:14;0.80;;;0.80;;
11533;SDS011;5823;50.588;8.462;2023-04-07T05:22:40;0.90;;;0.90;;
11533;SDS011;5823;50.588;8.462;2023-04-07T05:25:07;0.90;;;0.90;;
11533;SDS011;5823;50.588;8.462;2023-04-07T05:27:34;0.82;;;0.80;;
11533;SDS011;5823;50.588;8.462;2023-04-07T05:30:01;0.80;;;0.80;;
11533;SDS011;5823;50.588;8.462;2023-04-07T05:32:28;0.70;;;0.70;;
11533;SDS011;5823;50.588;8.462;2023-04-07T05:34:54;0.70;;;0.70;;
11533;SDS011;5823;50.588;8.462;2023-04-07T05:37:20;1.00;;;0.95;;
11533;SDS011;5823;50.588;8.462;2023-04-07T05:39:46;1.30;;;1.02;;
11533;SDS011;5823;50.588;8.462;2023-04-07T05:42:13;0.80;;;0.80;;
11533;SDS011;5823;50.588;8.462;2023-04-07T05:44:39;0.50;;;0.50;;
11533;SDS011;5823;50.588;8.462;2023-04-07T05:47:07;0.85;;;0.80;;
11533;SDS011;5823;50.588;8.462;2023-04-07T05:49:33;1.10;;;1.00;;
11533;SDS011;5823;50.588;8.462;2023-04-07T05:51:59;1.17;;;1.08;;
11533;SDS011;5823;50.588;8.462;2023-04-07T05:54:27;0.80;;;0.80;;
11533;SDS011;5823;50.588;8.462;2023-04-07T05:56:53;0.90;;;0.90;;
11533;SDS011;5823;50.588;8.462;2023-04-07T05:59:20;0.80;;;0.80;;
11533;SDS011;5823;50.588;8.462;2023-04-07T06:01:46;0.63;;;0.63;;
11533;SDS011;5823;50.588;8.462;2023-04-07T06:04:14;0.60;;;0.60;;
11533;SDS011;5823;50.588;8.462;2023-04-07T06:06:40;0.63;;;0.63;;
11533;SDS011;5823;50.588;8.462;2023-04-07T06:09:06;0.80;;;0.80;;
11533;SDS011;5823;50.588;8.462;2023-04-07T06:11:32;0.65;;;0.65;;
11533;SDS011;5823;50.588;8.462;2023-04-07T06:13:58;0.52;;;0.52;;
11533;SDS011;5823;50.588;8.462;2023-04-07T06:16:25;1.23;;;0.75;;
11533;SDS011;5823;50.588;8.462;2023-04-07T06:18:51;0.60;;;0.60;;
11533;SDS011;5823;50.588;8.462;2023-04-07T06:21:18;1.30;;;1.20;;
11533;SDS011;5823;50.588;8.462;2023-04-07T06:23:45;1.10;;;1.00;;
11533;SDS011;5823;50.588;8.462;2023-04-07T06:26:11;1.17;;;1.08;;
11533;SDS011;5823;50.588;8.462;2023-04-07T06:28:37;0.90;;;0.85;;
11533;SDS011;5823;50.588;8.462;2023-04-07T06:31:04;0.80;;;0.80;;
11533;SDS011;5823;50.588;8.462;2023-04-07T06:33:31;0.65;;;0.60;;
11533;SDS011;5823;50.588;8.462;2023-04-07T06:35:57;0.75;;;0.75;;
11533;SDS011;5823;50.588;8.462;2023-04-07T06:38:24;0.63;;;0.63;;
11533;SDS011;5823;50.588;8.462;2023-04-07T06:40:51;0.82;;;0.82;;
11533;SDS011;5823;50.588;8.462;2023-04-07T06:43:17;1.83;;;0.75;;
11533;SDS011;5823;50.588;8.462;2023-04-07T06:45:43;0.90;;;0.90;;
11533;SDS011;5823;50.588;8.462;2023-04-07T06:48:09;0.80;;;0.80;;
11533;SDS011;5823;50.588;8.462;2023-04-07T06:50:36;0.40;;;0.40;;
11533;SDS011;5823;50.588;8.462;2023-04-07T06:53:02;1.17;;;1.08;;
11533;SDS011;5823;50.588;8.462;2023-04-07T06:57:57;0.63;;;0.57;;
11533;SDS011;5823;50.588;8.462;2023-04-07T07:00:23;0.52;;;0.52;;
11533;SDS011;5823;50.588;8.462;2023-04-07T07:02:51;0.77;;;0.77;;
11533;SDS011;5823;50.588;8.462;2023-04-07T07:05:17;1.10;;;1.00;;
11533;SDS011;5823;50.588;8.462;2023-04-07T07:07:43;0.73;;;0.73;;
11533;SDS011;5823;50.588;8.462;2023-04-07T07:10:09;0.68;;;0.60;;
11533;SDS011;5823;50.588;8.462;2023-04-07T07:12:35;0.60;;;0.60;;
11533;SDS011;5823;50.588;8.462;2023-04-07T07:15:04;0.63;;;0.63;;
11533;SDS011;5823;50.588;8.462;2023-04-07T07:17:30;0.52;;;0.52;;
11533;SDS011;5823;50.588;8.462;2023-04-07T07:19:56;0.47;;;0.47;;
11533;SDS011;5823;50.588;8.462;2023-04-07T07:22:23;0.70;;;0.70;;
11533;SDS011;5823;50.588;8.462;2023-04-07T07:24:49;0.52;;;0.52;;
11533;SDS011;5823;50.588;8.462;2023-04-07T07:27:16;0.32;;;0.32;;
11533;SDS011;5823;50.588;8.462;2023-04-07T07:29:42;1.17;;;0.77;;
11533;SDS011;5823;50.588;8.462;2023-04-07T07:32:09;0.68;;;0.68;;
11533;SDS011;5823;50.588;8.462;2023-04-07T07:34:36;0.47;;;0.47;;
11533;SDS011;5823;50.588;8.462;2023-04-07T07:37:02;0.77;;;0.77;;
11533;SDS011;5823;50.588;8.462;2023-04-07T07:39:28;0.88;;;0.88;;
11533;SDS011;5823;50.588;8.462;2023-04-07T07:41:54;0.93;;;0.80;;
11533;SDS011;5823;50.588;8.462;2023-04-07T07:44:21;0.73;;;0.73;;
11533;SDS011;5823;50.588;8.462;2023-04-07T07:46:47;0.60;;;0.60;;
11533;SDS011;5823;50.588;8.462;2023-04-07T07:49:15;0.88;;;0.80;;
11533;SDS011;5823;50.588;8.462;2023-04-07T07:51:41;0.90;;;0.90;;
11533;SDS011;5823;50.588;8.462;2023-04-07T07:54:07;0.88;;;0.88;;
11533;SDS011;5823;50.588;8.462;2023-04-07T07:56:34;0.60;;;0.50;;
11533;SDS011;5823;50.588;8.462;2023-04-07T07:59:00;0.50;;;0.50;;
11533;SDS011;5823;50.588;8.462;2023-04-07T08:01:27;0.80;;;0.63;;
11533;SDS011;5823;50.588;8.462;2023-04-07T08:03:53;0.63;;;0.63;;
11533;SDS011;5823;50.588;8.462;2023-04-07T08:06:20;0.50;;;0.50;;
11533;SDS011;5823;50.588;8.462;2023-04-07T08:08:47;0.30;;;0.30;;
11533;SDS011;5823;50.588;8.462;2023-04-07T08:11:13;0.32;;;0.32;;
11533;SDS011;5823;50.588;8.462;2023-04-07T08:13:39;0.65;;;0.50;;
11533;SDS011;5823;50.588;8.462;2023-04-07T08:16:09;0.50;;;0.50;;
11533;SDS011;5823;50.588;8.462;2023-04-07T08:18:35;0.60;;;0.60;;
11533;SDS011;5823;50.588;8.462;2023-04-07T08:21:02;0.50;;;0.50;;
11533;SDS011;5823;50.588;8.462;2023-04-07T08:23:30;0.50;;;0.50;;
11533;SDS011;5823;50.588;8.462;2023-04-07T08:25:56;0.60;;;0.60;;
11533;SDS011;5823;50.588;8.462;2023-04-07T08:28:22;0.73;;;0.73;;
11533;SDS011;5823;50.588;8.462;2023-04-07T08:30:48;0.93;;;0.90;;
11533;SDS011;5823;50.588;8.462;2023-04-07T08:33:15;1.13;;;0.95;;
11533;SDS011;5823;50.588;8.462;2023-04-07T08:35:41;0.73;;;0.73;;
11533;SDS011;5823;50.588;8.462;2023-04-07T08:38:07;0.60;;;0.60;;
11533;SDS011;5823;50.588;8.462;2023-04-07T08:40:35;0.35;;;0.35;;
11533;SDS011;5823;50.588;8.462;2023-04-07T08:43:02;0.68;;;0.65;;
11533;SDS011;5823;50.588;8.462;2023-04-07T08:45:30;0.65;;;0.65;;
11533;SDS011;5823;50.588;8.462;2023-04-07T08:47:57;0.80;;;0.80;;
11533;SDS011;5823;50.588;8.462;2023-04-07T08:50:24;0.30;;;0.30;;
11533;SDS011;5823;50.588;8.462;2023-04-07T08:52:52;0.90;;;0.90;;
11533;SDS011;5823;50.588;8.462;2023-04-07T08:55:19;0.50;;;0.50;;
11533;SDS011;5823;50.588;8.462;2023-04-07T08:57:47;0.50;;;0.50;;
11533;SDS011;5823;50.588;8.462;2023-04-07T09:00:13;0.55;;;0.55;;
11533;SDS011;5823;50.588;8.462;2023-04-07T09:02:40;0.82;;;0.82;;
11533;SDS011;5823;50.588;8.462;2023-04-07T09:05:08;0.50;;;0.50;;
11533;SDS011;5823;50.588;8.462;2023-04-07T09:07:35;0.50;;;0.50;;
11533;SDS011;5823;50.588;8.462;2023-04-07T09:10:02;0.40;;;0.40;;
11533;SDS011;5823;50.588;8.462;2023-04-07T09:12:29;0.40;;;0.40;;
11533;SDS011;5823;50.588;8.462;2023-04-07T09:14:56;0.47;;;0.47;;
11533;SDS011;5823;50.588;8.462;2023-04-07T09:17:24;0.20;;;0.20;;
11533;SDS011;5823;50.588;8.462;2023-04-07T09:19:50;0.75;;;0.75;;
11533;SDS011;5823;50.588;8.462;2023-04-07T09:22:22;0.40;;;0.40;;
11533;SDS011;5823;50.588;8.462;2023-04-07T09:25:07;0.30;;;0.30;;
11533;SDS011;5823;50.588;8.462;2023-04-07T09:27:34;0.40;;;0.40;;
11533;SDS011;5823;50.588;8.462;2023-04-07T09:30:10;0.35;;;0.35;;
11533;SDS011;5823;50.588;8.462;2023-04-07T09:32:38;0.32;;;0.32;;
11533;SDS011;5823;50.588;8.462;2023-04-07T09:35:05;0.38;;;0.38;;
11533;SDS011;5823;50.588;8.462;2023-04-07T09:37:31;0.40;;;0.40;;
11533;SDS011;5823;50.588;8.462;2023-04-07T09:39:58;0.50;;;0.50;;
11533;SDS011;5823;50.588;8.462;2023-04-07T09:42:25;0.40;;;0.40;;
11533;SDS011;5823;50.588;8.462;2023-04-07T09:44:54;0.38;;;0.38;;
11533;SDS011;5823;50.588;8.462;2023-04-07T09:47:25;0.38;;;0.38;;
11533;SDS011;5823;50.588;8.462;2023-04-07T09:49:53;0.28;;;0.28;;
11533;SDS011;5823;50.588;8.462;2023-04-07T09:52:21;0.80;;;0.80;;
11533;SDS011;5823;50.588;8.462;2023-04-07T09:54:47;0.57;;;0.50;;
11533;SDS011;5823;50.588;8.462;2023-04-07T09:57:14;0.38;;;0.38;;
11533;SDS011;5823;50.588;8.462;2023-04-07T09:59:43;0.57;;;0.57;;
11533;SDS011;5823;50.588;8.462;2023-04-07T10:02:09;0.40;;;0.40;;
11533;SDS011;5823;50.588;8.462;2023-04-07T10:04:37;0.20;;;0.20;;
11533;SDS011;5823;50.588;8.462;2023-04-07T10:07:04;0.50;;;0.50;;
11533;SDS011;5823;50.588;8.462;2023-04-07T10:09:30;0.30;;;0.30;;
11533;SDS011;5823;50.588;8.462;2023-04-07T10:11:57;0.47;;;0.47;;
11533;SDS011;5823;50.588;8.462;2023-04-07T10:14:25;0.50;;;0.50;;
11533;SDS011;5823;50.588;8.462;2023-04-07T10:16:51;0.50;;;0.50;;
11533;SDS011;5823;50.588;8.462;2023-04-07T10:19:18;0.60;;;0.60;;
11533;SDS011;5823;50.588;8.462;2023-04-07T10:21:47;0.40;;;0.40;;
11533;SDS011;5823;50.588;8.462;2023-04-07T10:24:18;0.52;;;0.52;;
11533;SDS011;5823;50.588;8.462;2023-04-07T10:26:49;0.70;;;0.70;;
11533;SDS011;5823;50.588;8.462;2023-04-07T10:29:17;0.45;;;0.45;;
11533;SDS011;5823;50.588;8.462;2023-04-07T10:31:44;0.43;;;0.30;;
11533;SDS011;5823;50.588;8.462;2023-04-07T10:34:10;0.70;;;0.70;;
11533;SDS011;5823;50.588;8.462;2023-04-07T10:36:40;0.50;;;0.50;;
11533;SDS011;5823;50.588;8.462;2023-04-07T10:39:28;0.35;;;0.35;;
11533;SDS011;5823;50.588;8.462;2023-04-07T10:41:55;0.30;;;0.30;;
11533;SDS011;5823;50.588;8.462;2023-04-07T10:47:10;0.30;;;0.30;;
11533;SDS011;5823;50.588;8.462;2023-04-07T10:49:36;0.40;;;0.40;;
11533;SDS011;5823;50.588;8.462;2023-04-07T10:52:21;0.30;;;0.30;;
11533;SDS011;5823;50.588;8.462;2023-04-07T10:54:49;0.30;;;0.30;;
11533;SDS011;5823;50.588;8.462;2023-04-07T10:57:37;0.43;;;0.30;;
11533;SDS011;5823;50.588;8.462;2023-04-07T11:00:15;0.35;;;0.35;;
11533;SDS011;5823;50.588;8.462;2023-04-07T11:02:42;0.10;;;0.10;;
11533;SDS011;5823;50.588;8.462;2023-04-07T11:05:18;0.10;;;0.10;;
11533;SDS011;5823;50.588;8.462;2023-04-07T11:07:46;0.30;;;0.30;;
11533;SDS011;5823;50.588;8.462;2023-04-07T11:10:14;0.40;;;0.40;;
11533;SDS011;5823;50.588;8.462;2023-04-07T11:12:42;0.30;;;0.30;;
11533;SDS011;5823;50.588;8.462;2023-04-07T11:15:18;0.30;;;0.30;;
11533;SDS011;5823;50.588;8.462;2023-04-07T11:17:45;0.30;;;0.30;;
11533;SDS011;5823;50.588;8.462;2023-04-07T11:20:12;0.10;;;0.10;;
11533;SDS011;5823;50.588;8.462;2023-04-07T11:22:38;0.20;;;0.20;;
11533;SDS011;5823;50.588;8.462;2023-04-07T11:25:18;0.17;;;0.17;;
11533;SDS011;5823;50.588;8.462;2023-04-07T11:27:47;0.40;;;0.40;;
11533;SDS011;5823;50.588;8.462;2023-04-07T11:30:13;0.40;;;0.40;;
11533;SDS011;5823;50.588;8.462;2023-04-07T11:32:41;0.35;;;0.35;;
11533;SDS011;5823;50.588;8.462;2023-04-07T11:35:08;0.30;;;0.30;;
11533;SDS011;5823;50.588;8.462;2023-04-07T11:37:34;0.50;;;0.50;;
11533;SDS011;5823;50.588;8.462;2023-04-07T11:40:01;0.25;;;0.25;;
11533;SDS011;5823;50.588;8.462;2023-04-07T11:42:31;0.13;;;0.13;;
11533;SDS011;5823;50.588;8.462;2023-04-07T11:44:59;0.50;;;0.50;;
11533;SDS011;5823;50.588;8.462;2023-04-07T11:47:32;0.35;;;0.35;;
11533;SDS011;5823;50.588;8.462;2023-04-07T11:49:59;0.32;;;0.30;;
11533;SDS011;5823;50.588;8.462;2023-04-07T11:52:26;0.40;;;0.40;;
11533;SDS011;5823;50.588;8.462;2023-04-07T11:54:52;0.50;;;0.50;;
11533;SDS011;5823;50.588;8.462;2023-04-07T11:57:23;0.50;;;0.50;;
11533;SDS011;5823;50.588;8.462;2023-04-07T11:59:49;0.50;;;0.50;;
11533;SDS011;5823;50.588;8.462;2023-04-07T12:02:30;0.50;;;0.50;;
11533;SDS011;5823;50.588;8.462;2023-04-07T12:04:57;0.38;;;0.38;;
11533;SDS011;5823;50.588;8.462;2023-04-07T12:07:23;0.20;;;0.20;;
11533;SDS011;5823;50.588;8.462;2023-04-07T12:09:50;0.55;;;0.40;;
11533;SDS011;5823;50.588;8.462;2023-04-07T12:12:23;0.10;;;0.10;;
11533;SDS011;5823;50.588;8.462;2023-04-07T12:14:50;0.30;;;0.30;;
11533;SDS011;5823;50.588;8.462;2023-04-07T12:17:20;0.70;;;0.32;;
11533;SDS011;5823;50.588;8.462;2023-04-07T12:19:47;0.50;;;0.50;;
11533;SDS011;5823;50.588;8.462;2023-04-07T12:22:14;0.32;;;0.32;;
11533;SDS011;5823;50.588;8.462;2023-04-07T12:24:40;0.22;;;0.22;;
11533;SDS011;5823;50.588;8.462;2023-04-07T12:27:06;0.40;;;0.40;;
11533;SDS011;5823;50.588;8.462;2023-04-07T12:29:33;0.20;;;0.20;;
11533;SDS011;5823;50.588;8.462;2023-04-07T12:32:01;0.40;;;0.40;;
11533;SDS011;5823;50.588;8.462;2023-04-07T12:34:27;0.30;;;0.30;;
11533;SDS011;5823;50.588;8.462;2023-04-07T12:36:54;0.45;;;0.45;;
11533;SDS011;5823;50.588;8.462;2023-04-07T12:39:21;0.32;;;0.32;;
11533;SDS011;5823;50.588;8.462;2023-04-07T12:41:47;0.35;;;0.35;;
11533;SDS011;5823;50.588;8.462;2023-04-07T12:44:17;0.30;;;0.30;;
11533;SDS011;5823;50.588;8.462;2023-04-07T12:46:43;0.45;;;0.45;;
11533;SDS011;5823;50.588;8.462;2023-04-07T12:49:09;0.50;;;0.50;;
11533;SDS011;5823;50.588;8.462;2023-04-07T12:51:35;0.57;;;0.57;;
11533;SDS011;5823;50.588;8.462;2023-04-07T12:54:05;0.30;;;0.30;;
11533;SDS011;5823;50.588;8.462;2023-04-07T12:56:31;0.30;;;0.30;;
11533;SDS011;5823;50.588;8.462;2023-04-07T12:58:57;0.22;;;0.22;;
11533;SDS011;5823;50.588;8.462;2023-04-07T13:01:24;0.30;;;0.30;;
11533;SDS011;5823;50.588;8.462;2023-04-07T13:03:50;0.45;;;0.45;;
11533;SDS011;5823;50.588;8.462;2023-04-07T13:06:16;0.45;;;0.45;;
11533;SDS011;5823;50.588;8.462;2023-04-07T13:08:43;0.40;;;0.40;;
11533;SDS011;5823;50.588;8.462;2023-04-07T13:11:10;0.47;;;0.47;;
11533;SDS011;5823;50.588;8.462;2023-04-07T13:13:36;0.10;;;0.10;;
11533;SDS011;5823;50.588;8.462;2023-04-07T13:16:03;0.13;;;0.13;;
11533;SDS011;5823;50.588;8.462;2023-04-07T13:18:29;0.20;;;0.20;;
11533;SDS011;5823;50.588;8.462;2023-04-07T13:20:55;0.13;;;0.13;;
11533;SDS011;5823;50.588;8.462;2023-04-07T13:23:21;0.10;;;0.10;;
11533;SDS011;5823;50.588;8.462;2023-04-07T13:25:48;0.25;;;0.25;;
11533;SDS011;5823;50.588;8.462;2023-04-07T13:28:15;0.10;;;0.10;;
11533;SDS011;5823;50.588;8.462;2023-04-07T13:30:44;0.30;;;0.30;;
11533;SDS011;5823;50.588;8.462;2023-04-07T13:33:11;0.20;;;0.20;;
11533;SDS011;5823;50.588;8.462;2023-04-07T13:35:37;0.10;;;0.10;;
11533;SDS011;5823;50.588;8.462;2023-04-07T13:38:03;0.20;;;0.20;;
11533;SDS011;5823;50.588;8.462;2023-04-07T13:40:29;0.10;;;0.10;;
11533;SDS011;5823;50.588;8.462;2023-04-07T13:42:56;0.10;;;0.10;;
11533;SDS011;5823;50.588;8.462;2023-04-07T13:45:25;0.17;;;0.17;;
11533;SDS011;5823;50.588;8.462;2023-04-07T13:47:52;0.10;;;0.10;;
11533;SDS011;5823;50.588;8.462;2023-04-07T13:50:19;0.10;;;0.10;;
11533;SDS011;5823;50.588;8.462;2023-04-07T13:52:45;0.10;;;0.10;;
11533;SDS011;5823;50.588;8.462;2023-04-07T13:55:12;0.20;;;0.20;;
11533;SDS011;5823;50.588;8.462;2023-04-07T13:57:39;0.20;;;0.10;;
11533;SDS011;5823;50.588;8.462;2023-04-07T14:00:06;0.10;;;0.10;;
11533;SDS011;5823;50.588;8.462;2023-04-07T14:02:36;0.03;;;0.03;;
11533;SDS011;5823;50.588;8.462;2023-04-07T14:05:03;0.00;;;0.00;;
11533;SDS011;5823;50.588;8.462;2023-04-07T14:07:29;0.10;;;0.10;;
11533;SDS011;5823;50.588;8.462;2023-04-07T14:09:56;0.10;;;0.10;;
11533;SDS011;5823;50.588;8.462;2023-04-07T14:12:22;0.10;;;0.10;;
11533;SDS011;5823;50.588;8.462;2023-04-07T14:14:48;0.00;;;0.00;;
11533;SDS011;5823;50.588;8.462;2023-04-07T14:17:16;0.08;;;0.08;;
11533;SDS011;5823;50.588;8.462;2023-04-07T14:19:43;0.10;;;0.10;;
11533;SDS011;5823;50.588;8.462;2023-04-07T14:22:12;0.10;;;0.10;;
11533;SDS011;5823;50.588;8.462;2023-04-07T14:24:38;0.20;;;0.20;;
11533;SDS011;5823;50.588;8.462;2023-04-07T14:27:04;0.10;;;0.10;;
11533;SDS011;5823;50.588;8.462;2023-04-07T14:29:30;0.05;;;0.05;;
11533;SDS011;5823;50.588;8.462;2023-04-07T14:31:57;0.05;;;0.05;;
11533;SDS011;5823;50.588;8.462;2023-04-07T14:34:23;0.10;;;0.10;;
11533;SDS011;5823;50.588;8.462;2023-04-07T14:36:54;0.10;;;0.10;;
11533;SDS011;5823;50.588;8.462;2023-04-07T14:39:21;0.00;;;0.00;;
11533;SDS011;5823;50.588;8.462;2023-04-07T14:41:48;0.10;;;0.10;;
11533;SDS011;5823;50.588;8.462;2023-04-07T14:44:14;0.00;;;0.00;;
11533;SDS011;5823;50.588;8.462;2023-04-07T14:46:40;0.10;;;0.10;;
11533;SDS011;5823;50.588;8.462;2023-04-07T14:49:09;0.20;;;0.20;;
11533;SDS011;5823;50.588;8.462;2023-04-07T14:51:37;0.15;;;0.10;;
11533;SDS011;5823;50.588;8.462;2023-04-07T14:54:04;0.30;;;0.30;;
11533;SDS011;5823;50.588;8.462;2023-04-07T14:56:31;0.00;;;0.00;;
11533;SDS011;5823;50.588;8.462;2023-04-07T14:58:58;0.00;;;0.00;;
11533;SDS011;5823;50.588;8.462;2023-04-07T15:01:24;0.20;;;0.15;;
11533;SDS011;5823;50.588;8.462;2023-04-07T15:03:50;0.10;;;0.10;;
11533;SDS011;5823;50.588;8.462;2023-04-07T15:06:17;0.10;;;0.10;;
11533;SDS011;5823;50.588;8.462;2023-04-07T15:08:44;0.10;;;0.10;;